createdAt,value
2018-12-02T00:00:55.071Z,-3.30
2018-12-02T00:03:24.261Z,-3.20
2018-12-02T00:05:53.168Z,-3.30
2018-12-02T00:08:22.061Z,-3.30
2018-12-02T00:10:51.073Z,-3.30
2018-12-02T00:13:19.999Z,-3.20
2018-12-02T00:15:49.760Z,-3.30
2018-12-02T00:18:18.690Z,-3.30
2018-12-02T00:20:47.631Z,-3.30
2018-12-02T00:23:16.566Z,-3.30
2018-12-02T00:25:45.512Z,-3.30
2018-12-02T00:28:14.445Z,-3.30
2018-12-02T00:30:43.356Z,-3.30
2018-12-02T00:33:12.405Z,-3.30
2018-12-02T00:35:41.341Z,-3.20
2018-12-02T00:38:10.273Z,-3.20
2018-12-02T00:40:39.205Z,-3.20
2018-12-02T00:43:08.781Z,-3.20
2018-12-02T00:45:38.333Z,-3.20
2018-12-02T00:48:08.790Z,-3.20
2018-12-02T00:50:37.876Z,-3.20
2018-12-02T00:53:08.409Z,-3.20
2018-12-02T00:55:42.149Z,-3.30
2018-12-02T00:58:11.066Z,-3.20
2018-12-02T01:00:39.984Z,-3.20
2018-12-02T01:03:10.004Z,-3.20
2018-12-02T01:05:38.907Z,-3.10
2018-12-02T01:08:08.071Z,-3.10
2018-12-02T01:10:37.726Z,-3.00
2018-12-02T01:13:08.818Z,-3.00
2018-12-02T01:15:38.643Z,-3.00
2018-12-02T01:18:07.609Z,-3.00
2018-12-02T01:20:36.995Z,-3.10
2018-12-02T01:23:06.640Z,-3.10
2018-12-02T01:25:36.348Z,-3.00
2018-12-02T01:28:05.316Z,-2.90
2018-12-02T01:30:34.263Z,-2.90
2018-12-02T01:33:03.231Z,-2.90
2018-12-02T01:35:32.196Z,-2.90
2018-12-02T01:38:01.162Z,-2.90
2018-12-02T01:40:30.073Z,-2.90
2018-12-02T01:42:59.041Z,-2.90
2018-12-02T01:45:27.985Z,-2.90
2018-12-02T01:47:57.412Z,-2.90
2018-12-02T01:50:27.107Z,-2.90
2018-12-02T01:52:56.881Z,-2.90
2018-12-02T01:55:25.817Z,-2.90
2018-12-02T01:57:54.747Z,-2.90
2018-12-02T02:00:27.775Z,-2.90
2018-12-02T02:02:57.444Z,-2.90
2018-12-02T02:05:27.232Z,-2.80
2018-12-02T02:07:56.190Z,-2.90
2018-12-02T02:10:26.201Z,-2.80
2018-12-02T02:12:55.484Z,-2.80
2018-12-02T02:15:24.725Z,-2.70
2018-12-02T02:17:54.217Z,-2.60
2018-12-02T02:20:24.951Z,-2.60
2018-12-02T02:22:54.107Z,-2.70
2018-12-02T02:25:24.077Z,-2.60
2018-12-02T02:27:55.466Z,-2.70
2018-12-02T02:30:25.579Z,-2.60
2018-12-02T02:32:54.487Z,-2.60
2018-12-02T02:35:23.795Z,-2.60
2018-12-02T02:37:53.988Z,-2.50
2018-12-02T02:40:29.697Z,-2.50
2018-12-02T02:42:58.675Z,-2.40
2018-12-02T02:45:27.622Z,-2.40
2018-12-02T02:47:56.655Z,-2.40
2018-12-02T02:50:26.531Z,-2.40
2018-12-02T02:52:56.773Z,-2.40
2018-12-02T02:55:25.717Z,-2.30
2018-12-02T02:57:54.724Z,-2.30
2018-12-02T03:00:24.765Z,-2.30
2018-12-02T03:02:53.722Z,-2.30
2018-12-02T03:05:22.828Z,-2.20
2018-12-02T03:07:51.763Z,-2.20
2018-12-02T03:10:22.674Z,-2.10
2018-12-02T03:12:53.418Z,-2.10
2018-12-02T03:15:23.789Z,-2.10
2018-12-02T03:17:52.681Z,-2.10
2018-12-02T03:20:24.457Z,-2.00
2018-12-02T03:22:55.363Z,-2.00
2018-12-02T03:25:27.545Z,-2.00
2018-12-02T03:27:56.493Z,-1.90
2018-12-02T03:30:26.144Z,-1.90
2018-12-02T03:32:55.196Z,-1.90
2018-12-02T03:35:25.199Z,-1.90
2018-12-02T03:37:56.760Z,-1.90
2018-12-02T03:40:26.973Z,-1.90
2018-12-02T03:42:56.598Z,-1.90
2018-12-02T03:45:26.562Z,-1.90
2018-12-02T03:47:55.575Z,-1.80
2018-12-02T03:50:24.784Z,-1.70
2018-12-02T03:52:53.752Z,-1.70
2018-12-02T03:55:22.900Z,-1.70
2018-12-02T03:57:51.889Z,-1.70
2018-12-02T04:00:22.693Z,-1.80
2018-12-02T04:02:52.480Z,-1.70
2018-12-02T04:05:23.548Z,-1.70
2018-12-02T04:07:57.675Z,-1.70
2018-12-02T04:10:27.086Z,-1.60
2018-12-02T04:12:56.420Z,-1.60
2018-12-02T04:15:25.907Z,-1.60
2018-12-02T04:17:54.835Z,-1.50
2018-12-02T04:20:23.744Z,-1.50
2018-12-02T04:22:53.247Z,-1.40
2018-12-02T04:25:23.438Z,-1.40
2018-12-02T04:27:52.498Z,-1.40
2018-12-02T04:30:22.420Z,-1.40
2018-12-02T04:32:52.585Z,-1.30
2018-12-02T04:35:25.377Z,-1.30
2018-12-02T04:37:54.424Z,-1.30
2018-12-02T04:40:23.510Z,-1.20
2018-12-02T04:42:52.452Z,-1.20
2018-12-02T04:45:22.324Z,-1.10
2018-12-02T04:47:51.263Z,-1.00
2018-12-02T04:50:22.272Z,-1.10
2018-12-02T04:52:51.285Z,-1.10
2018-12-02T04:55:21.306Z,-1.20
2018-12-02T04:57:51.013Z,-1.10
2018-12-02T05:00:20.641Z,-1.10
2018-12-02T05:02:51.324Z,-1.00
2018-12-02T05:05:22.889Z,-1.00
2018-12-02T05:07:51.905Z,-0.90
2018-12-02T05:10:21.625Z,-0.90
2018-12-02T05:12:51.818Z,-0.80
2018-12-02T05:15:21.617Z,-0.80
2018-12-02T05:17:51.274Z,-0.80
2018-12-02T05:20:22.090Z,-0.80
2018-12-02T05:22:51.092Z,-0.90
2018-12-02T05:25:20.351Z,-0.80
2018-12-02T05:27:50.178Z,-1.00
2018-12-02T05:30:22.564Z,-1.00
2018-12-02T05:32:54.944Z,-0.90
2018-12-02T05:35:23.888Z,-0.80
2018-12-02T05:37:52.796Z,-0.80
2018-12-02T05:40:26.279Z,-0.80
2018-12-02T05:42:55.293Z,-0.80
2018-12-02T05:45:24.369Z,-0.80
2018-12-02T05:47:53.339Z,-0.80
2018-12-02T05:50:23.406Z,-0.80
2018-12-02T05:52:56.414Z,-0.70
2018-12-02T05:55:29.520Z,-0.60
2018-12-02T05:57:58.564Z,-0.60
2018-12-02T06:00:27.534Z,-0.60
2018-12-02T06:02:56.491Z,-0.60
2018-12-02T06:05:25.459Z,-0.60
2018-12-02T06:07:54.475Z,-0.50
2018-12-02T06:10:23.781Z,-0.50
2018-12-02T06:12:53.116Z,-0.40
2018-12-02T06:15:22.258Z,-0.40
2018-12-02T06:17:51.194Z,-0.30
2018-12-02T06:20:22.331Z,-0.40
2018-12-02T06:22:52.593Z,-0.40
2018-12-02T06:25:21.524Z,-0.40
2018-12-02T06:27:50.714Z,-0.40
2018-12-02T06:30:22.499Z,-0.40
2018-12-02T06:32:52.888Z,-0.50
2018-12-02T06:35:21.829Z,-0.40
2018-12-02T06:37:51.492Z,-0.40
2018-12-02T06:40:22.373Z,-0.30
2018-12-02T06:42:51.529Z,-0.40
2018-12-02T06:45:20.664Z,-0.30
2018-12-02T06:47:49.598Z,-0.30
2018-12-02T06:50:23.049Z,-0.20
2018-12-02T06:52:52.245Z,-0.20
2018-12-02T06:55:28.427Z,-0.20
2018-12-02T06:58:04.775Z,-0.10
2018-12-02T07:00:38.455Z,-0.10
2018-12-02T07:03:18.692Z,-0.10
2018-12-02T07:05:48.238Z,-0.10
2018-12-02T07:08:17.194Z,0.00
2018-12-02T07:10:46.133Z,0.00
2018-12-02T07:13:15.035Z,0.10
2018-12-02T07:15:44.012Z,0.20
2018-12-02T07:18:16.506Z,0.20
2018-12-02T07:20:47.728Z,0.30
2018-12-02T07:23:17.368Z,0.40
2018-12-02T07:25:46.259Z,0.40
2018-12-02T07:28:15.222Z,0.50
2018-12-02T07:30:44.225Z,0.50
2018-12-02T07:33:13.398Z,0.50
2018-12-02T07:35:42.366Z,0.60
2018-12-02T07:38:20.066Z,0.60
2018-12-02T07:40:49.102Z,0.60
2018-12-02T07:43:18.016Z,0.70
2018-12-02T07:45:46.946Z,0.70
2018-12-02T07:48:16.123Z,0.80
2018-12-02T07:50:45.062Z,0.80
2018-12-02T07:53:14.146Z,0.90
2018-12-02T07:55:43.100Z,1.00
2018-12-02T07:58:15.054Z,1.10
2018-12-02T08:00:45.541Z,1.10
2018-12-02T08:03:14.543Z,1.20
2018-12-02T08:05:44.931Z,1.30
2018-12-02T08:08:13.947Z,1.30
2018-12-02T08:10:42.846Z,1.40
2018-12-02T08:13:11.937Z,1.50
2018-12-02T08:15:40.933Z,1.50
2018-12-02T08:18:10.201Z,1.50
2018-12-02T08:20:39.093Z,1.60
2018-12-02T08:23:08.047Z,1.60
2018-12-02T08:25:36.968Z,1.70
2018-12-02T08:28:06.375Z,1.80
2018-12-02T08:30:36.171Z,1.80
2018-12-02T08:33:05.085Z,1.80
2018-12-02T08:35:34.489Z,1.80
2018-12-02T08:38:09.169Z,1.90
2018-12-02T08:40:38.124Z,1.90
2018-12-02T08:43:08.242Z,2.10
2018-12-02T08:45:38.189Z,2.10
2018-12-02T08:48:06.817Z,2.10
2018-12-02T08:50:35.867Z,2.10
2018-12-02T08:53:04.829Z,2.10
2018-12-02T08:55:33.737Z,2.30
2018-12-02T08:58:02.690Z,2.40
2018-12-02T09:00:31.659Z,2.70
2018-12-02T09:03:03.409Z,2.70
2018-12-02T09:05:32.361Z,2.80
2018-12-02T09:08:01.941Z,2.70
2018-12-02T09:10:32.121Z,2.70
2018-12-02T09:13:03.537Z,2.70
2018-12-02T09:15:32.498Z,2.70
2018-12-02T09:18:01.454Z,2.80
2018-12-02T09:20:33.886Z,2.80
2018-12-02T09:23:02.971Z,2.90
2018-12-02T09:25:31.921Z,3.00
2018-12-02T09:28:01.750Z,3.00
2018-12-02T09:30:31.841Z,2.90
2018-12-02T09:33:00.772Z,3.00
2018-12-02T09:35:29.735Z,3.10
2018-12-02T09:37:58.681Z,3.10
2018-12-02T09:40:27.868Z,3.10
2018-12-02T09:42:56.895Z,3.20
2018-12-02T09:45:27.823Z,3.10
2018-12-02T09:48:01.273Z,3.00
2018-12-02T09:50:30.164Z,3.10
2018-12-02T09:52:59.157Z,3.10
2018-12-02T09:55:32.828Z,3.10
2018-12-02T09:58:01.737Z,3.20
2018-12-02T10:00:34.113Z,3.20
2018-12-02T10:02:59.862Z,3.20
2018-12-02T10:05:28.758Z,3.30
2018-12-02T10:07:57.704Z,3.20
2018-12-02T10:10:26.713Z,3.20
2018-12-02T10:12:57.904Z,3.20
2018-12-02T10:15:27.505Z,3.30
2018-12-02T10:17:56.466Z,3.40
2018-12-02T10:20:25.476Z,3.50
2018-12-02T10:22:54.413Z,3.50
2018-12-02T10:25:23.430Z,3.50
2018-12-02T10:27:52.476Z,3.50
2018-12-02T10:30:23.467Z,3.40
2018-12-02T10:32:54.139Z,3.50
2018-12-02T10:35:23.095Z,3.50
2018-12-02T10:37:52.939Z,3.50
2018-12-02T10:40:24.002Z,3.60
2018-12-02T10:42:53.149Z,3.70
2018-12-02T10:45:23.000Z,3.90
2018-12-02T10:47:54.733Z,4.20
2018-12-02T10:50:25.912Z,4.30
2018-12-02T10:52:56.190Z,4.30
2018-12-02T10:55:42.080Z,4.30
2018-12-02T10:58:26.774Z,4.20
2018-12-02T11:01:02.361Z,4.20
2018-12-02T11:03:31.629Z,4.10
2018-12-02T11:06:00.606Z,3.90
2018-12-02T11:08:29.721Z,3.80
2018-12-02T11:10:58.649Z,3.60
2018-12-02T11:13:27.588Z,3.50
2018-12-02T11:15:56.619Z,3.40
2018-12-02T11:18:25.574Z,3.40
2018-12-02T11:20:54.868Z,3.30
2018-12-02T11:23:23.774Z,3.30
2018-12-02T11:25:53.243Z,3.40
2018-12-02T11:28:22.121Z,3.50
2018-12-02T11:30:51.007Z,3.50
2018-12-02T11:33:20.493Z,3.70
2018-12-02T11:35:49.404Z,3.80
2018-12-02T11:38:18.431Z,3.90
2018-12-02T11:40:47.424Z,4.10
2018-12-02T11:43:16.323Z,4.30
2018-12-02T11:45:45.236Z,4.50
2018-12-02T11:48:14.121Z,4.60
2018-12-02T11:50:43.043Z,4.80
2018-12-02T11:53:12.019Z,5.00
2018-12-02T11:55:40.953Z,5.10
2018-12-02T11:58:09.916Z,5.20
2018-12-02T12:00:40.498Z,5.20
2018-12-02T12:03:09.455Z,5.30
2018-12-02T12:05:38.818Z,5.30
2018-12-02T12:08:10.327Z,5.30
2018-12-02T12:10:39.241Z,5.30
2018-12-02T12:13:08.180Z,5.20
2018-12-02T12:15:37.775Z,5.10
2018-12-02T12:18:08.718Z,5.00
2018-12-02T12:20:43.121Z,4.90
2018-12-02T12:23:15.517Z,4.80
2018-12-02T12:25:44.468Z,4.70
2018-12-02T12:28:13.383Z,4.70
2018-12-02T12:30:42.572Z,4.70
2018-12-02T12:33:12.036Z,4.60
2018-12-02T12:35:44.244Z,4.50
2018-12-02T12:38:13.301Z,4.50
2018-12-02T12:40:42.482Z,4.40
2018-12-02T12:43:20.041Z,4.30
2018-12-02T12:45:48.927Z,4.30
2018-12-02T12:48:17.895Z,4.30
2018-12-02T12:50:46.884Z,4.30
2018-12-02T12:53:15.793Z,4.20
2018-12-02T12:55:50.699Z,4.10
2018-12-02T12:58:16.230Z,4.10
2018-12-02T13:00:45.209Z,4.10
2018-12-02T13:03:14.123Z,4.00
2018-12-02T13:05:43.668Z,3.90
2018-12-02T13:08:14.259Z,3.90
2018-12-02T13:10:43.473Z,3.90
2018-12-02T13:13:12.671Z,3.80
2018-12-02T13:15:41.609Z,3.80
2018-12-02T13:18:11.253Z,3.60
2018-12-02T13:20:43.892Z,3.70
2018-12-02T13:23:12.864Z,3.60
2018-12-02T13:25:41.812Z,3.50
2018-12-02T13:28:10.706Z,3.30
2018-12-02T13:30:40.334Z,3.20
2018-12-02T13:33:09.468Z,3.10
2018-12-02T13:35:39.008Z,3.00
2018-12-02T13:38:08.038Z,3.00
2018-12-02T13:40:38.030Z,2.90
2018-12-02T13:43:15.237Z,2.80
2018-12-02T13:45:44.390Z,2.60
2018-12-02T13:48:13.330Z,2.60
2018-12-02T13:50:42.302Z,2.50
2018-12-02T13:53:11.213Z,2.50
2018-12-02T13:55:40.234Z,2.40
2018-12-02T13:58:09.795Z,2.30
2018-12-02T14:00:41.597Z,2.20
2018-12-02T14:03:13.388Z,2.20
2018-12-02T14:05:45.393Z,2.10
2018-12-02T14:08:14.305Z,2.00
2018-12-02T14:10:43.993Z,1.90
2018-12-02T14:13:20.149Z,1.80
2018-12-02T14:15:59.248Z,1.80
2018-12-02T14:18:34.926Z,1.70
2018-12-02T14:21:05.801Z,1.70
2018-12-02T14:23:34.946Z,1.60
2018-12-02T14:26:09.300Z,1.50
2018-12-02T14:28:43.841Z,1.50
2018-12-02T14:31:13.237Z,1.40
2018-12-02T14:33:42.201Z,1.40
2018-12-02T14:36:11.161Z,1.40
2018-12-02T14:38:40.410Z,1.30
2018-12-02T14:41:09.517Z,1.20
2018-12-02T14:43:38.454Z,1.20
2018-12-02T14:46:08.402Z,1.20
2018-12-02T14:48:37.691Z,1.10
2018-12-02T14:51:06.620Z,1.00
2018-12-02T14:53:35.575Z,1.00
2018-12-02T14:56:04.580Z,1.00
2018-12-02T14:58:33.502Z,0.90
2018-12-02T15:01:02.899Z,0.90
2018-12-02T15:03:31.824Z,0.90
2018-12-02T15:06:00.724Z,0.80
2018-12-02T15:08:29.792Z,0.80
2018-12-02T15:10:58.674Z,0.70
2018-12-02T15:13:27.609Z,0.70
2018-12-02T15:15:56.542Z,0.70
2018-12-02T15:18:25.448Z,0.80
2018-12-02T15:20:54.463Z,0.80
2018-12-02T15:23:23.366Z,0.80
2018-12-02T15:25:52.263Z,0.70
2018-12-02T15:28:21.207Z,0.60
2018-12-02T15:30:51.279Z,0.60
2018-12-02T15:33:20.236Z,0.60
2018-12-02T15:35:49.786Z,0.50
2018-12-02T15:38:18.741Z,0.50
2018-12-02T15:40:47.669Z,0.50
2018-12-02T15:43:16.664Z,0.50
2018-12-02T15:45:45.598Z,0.40
2018-12-02T15:48:14.521Z,0.30
2018-12-02T15:50:43.483Z,0.40
2018-12-02T15:53:12.407Z,0.30
2018-12-02T15:55:41.364Z,0.30
2018-12-02T15:58:12.234Z,0.40
2018-12-02T16:00:43.847Z,0.30
2018-12-02T16:03:12.761Z,0.30
2018-12-02T16:05:41.721Z,0.30
2018-12-02T16:08:10.677Z,0.30
2018-12-02T16:10:39.686Z,0.20
2018-12-02T16:13:10.083Z,0.30
2018-12-02T16:15:38.996Z,0.30
2018-12-02T16:18:09.742Z,0.20
2018-12-02T16:20:43.646Z,0.20
2018-12-02T16:23:12.760Z,0.30
2018-12-02T16:25:41.695Z,0.30
2018-12-02T16:28:10.620Z,0.30
2018-12-02T16:30:39.965Z,0.30
2018-12-02T16:33:08.892Z,0.20
2018-12-02T16:35:37.909Z,0.10
2018-12-02T16:38:08.666Z,0.10
2018-12-02T16:40:37.595Z,0.10
2018-12-02T16:43:07.579Z,0.10
2018-12-02T16:45:36.493Z,0.10
2018-12-02T16:48:06.528Z,0.10
2018-12-02T16:50:37.839Z,0.10
2018-12-02T16:53:11.709Z,0.10
2018-12-02T16:55:52.582Z,0.10
2018-12-02T16:58:26.369Z,0.10
2018-12-02T17:01:03.710Z,0.00
2018-12-02T17:03:32.633Z,0.00
2018-12-02T17:06:02.611Z,0.10
2018-12-02T17:08:31.594Z,0.00
2018-12-02T17:11:00.565Z,0.00
2018-12-02T17:13:29.581Z,0.00
2018-12-02T17:15:58.548Z,0.00
2018-12-02T17:18:27.452Z,0.00
2018-12-02T17:20:56.726Z,0.00
2018-12-02T17:23:25.687Z,-0.10
2018-12-02T17:25:54.793Z,-0.10
2018-12-02T17:28:28.631Z,-0.10
2018-12-02T17:30:55.721Z,-0.10
2018-12-02T17:33:24.824Z,-0.10
2018-12-02T17:35:53.765Z,-0.20
2018-12-02T17:38:24.127Z,-0.30
2018-12-02T17:40:54.479Z,-0.30
2018-12-02T17:43:23.461Z,-0.20
2018-12-02T17:45:52.368Z,-0.10
2018-12-02T17:48:21.344Z,-0.20
2018-12-02T17:50:50.313Z,-0.20
2018-12-02T17:53:19.242Z,-0.20
2018-12-02T17:55:48.156Z,-0.20
2018-12-02T17:58:17.120Z,-0.20
2018-12-02T18:00:46.157Z,-0.30
2018-12-02T18:03:19.229Z,-0.30
2018-12-02T18:05:48.413Z,-0.30
2018-12-02T18:08:17.325Z,-0.30
2018-12-02T18:10:46.304Z,-0.30
2018-12-02T18:13:15.258Z,-0.30
2018-12-02T18:15:45.039Z,-0.30
2018-12-02T18:18:13.983Z,-0.30
2018-12-02T18:20:42.903Z,-0.30
2018-12-02T18:23:11.918Z,-0.30
2018-12-02T18:25:40.854Z,-0.20
2018-12-02T18:28:09.939Z,-0.20
2018-12-02T18:30:38.899Z,-0.20
2018-12-02T18:33:08.165Z,-0.10
2018-12-02T18:35:42.138Z,0.00
2018-12-02T18:38:15.906Z,0.10
2018-12-02T18:40:50.083Z,0.30
2018-12-02T18:43:19.459Z,0.40
2018-12-02T18:45:48.446Z,0.40
2018-12-02T18:48:17.430Z,0.40
2018-12-02T18:50:46.369Z,0.40
2018-12-02T18:53:15.880Z,0.50
2018-12-02T18:55:44.907Z,0.50
2018-12-02T18:58:13.863Z,0.60
2018-12-02T19:00:46.013Z,0.60
2018-12-02T19:03:16.072Z,0.70
2018-12-02T19:05:45.041Z,0.70
2018-12-02T19:08:14.054Z,0.80
2018-12-02T19:10:43.472Z,0.70
2018-12-02T19:13:12.520Z,0.70
2018-12-02T19:15:42.195Z,0.80
2018-12-02T19:18:11.126Z,0.80
2018-12-02T19:20:40.150Z,0.90
2018-12-02T19:23:11.666Z,0.80
2018-12-02T19:25:40.599Z,0.90
2018-12-02T19:28:09.537Z,0.80
2018-12-02T19:30:38.541Z,0.90
2018-12-02T19:33:09.554Z,0.90
2018-12-02T19:35:38.724Z,0.80
2018-12-02T19:38:13.345Z,0.80
2018-12-02T19:40:42.342Z,0.70
2018-12-02T19:43:11.241Z,0.80
2018-12-02T19:45:40.189Z,0.80
2018-12-02T19:48:09.112Z,0.90
2018-12-02T19:50:38.072Z,0.90
2018-12-02T19:53:07.098Z,0.90
2018-12-02T19:55:36.090Z,0.80
2018-12-02T19:58:06.318Z,0.80
2018-12-02T20:00:40.317Z,0.80
2018-12-02T20:03:09.731Z,0.80
2018-12-02T20:05:38.968Z,0.90
2018-12-02T20:08:10.315Z,0.90
2018-12-02T20:10:40.698Z,1.00
2018-12-02T20:13:11.933Z,1.00
2018-12-02T20:15:46.084Z,1.00
2018-12-02T20:18:15.219Z,1.10
2018-12-02T20:20:48.930Z,1.00
2018-12-02T20:23:23.861Z,0.90
2018-12-02T20:25:54.556Z,0.90
2018-12-02T20:28:25.804Z,0.90
2018-12-02T20:30:54.756Z,0.90
2018-12-02T20:33:23.832Z,0.90
2018-12-02T20:35:52.859Z,0.80
2018-12-02T20:38:21.798Z,0.80
2018-12-02T20:40:51.292Z,0.90
2018-12-02T20:43:20.358Z,0.80
2018-12-02T20:45:49.324Z,0.80
2018-12-02T20:48:18.271Z,0.80
2018-12-02T20:50:47.355Z,0.90
2018-12-02T20:53:16.314Z,0.90
2018-12-02T20:55:45.331Z,0.90
2018-12-02T20:58:14.808Z,0.90
2018-12-02T21:00:44.510Z,0.80
2018-12-02T21:03:28.945Z,0.80
2018-12-02T21:06:09.145Z,0.80
2018-12-02T21:08:38.297Z,0.70
2018-12-02T21:11:07.285Z,0.70
2018-12-02T21:13:36.452Z,0.70
2018-12-02T21:16:06.193Z,0.70
2018-12-02T21:18:35.196Z,0.70
2018-12-02T21:21:04.202Z,0.70
2018-12-02T21:23:33.163Z,0.70
2018-12-02T21:26:02.313Z,0.80
2018-12-02T21:28:31.269Z,0.90
2018-12-02T21:31:00.626Z,0.80
2018-12-02T21:33:29.655Z,0.80
2018-12-02T21:35:58.684Z,0.90
2018-12-02T21:38:27.653Z,0.80
2018-12-02T21:40:56.533Z,0.80
2018-12-02T21:43:25.569Z,0.80
2018-12-02T21:45:54.496Z,0.90
2018-12-02T21:48:23.525Z,1.00
2018-12-02T21:50:55.636Z,0.90
2018-12-02T21:53:24.588Z,1.00
2018-12-02T21:55:53.645Z,0.90
2018-12-02T21:58:22.589Z,0.90
2018-12-02T22:00:56.577Z,0.90
2018-12-02T22:03:25.494Z,0.90
2018-12-02T22:05:54.448Z,0.90
2018-12-02T22:08:23.399Z,1.00
2018-12-02T22:10:52.354Z,0.90
2018-12-02T22:13:21.312Z,0.90
2018-12-02T22:15:50.172Z,0.90
2018-12-02T22:18:19.095Z,0.90
2018-12-02T22:20:48.017Z,1.00
2018-12-02T22:23:16.931Z,0.90
2018-12-02T22:25:45.824Z,1.00
2018-12-02T22:28:15.216Z,1.10
2018-12-02T22:30:44.205Z,1.10
2018-12-02T22:33:13.100Z,1.10
2018-12-02T22:35:42.802Z,1.20
2018-12-02T22:38:11.707Z,1.30
2018-12-02T22:40:40.766Z,1.20
2018-12-02T22:43:09.698Z,1.30
2018-12-02T22:45:38.606Z,1.30
2018-12-02T22:48:07.510Z,1.30
2018-12-02T22:50:36.460Z,1.20
2018-12-02T22:53:05.583Z,1.20
2018-12-02T22:55:34.503Z,1.20
2018-12-02T22:58:03.395Z,1.20
2018-12-02T23:00:38.207Z,1.20
2018-12-02T23:03:13.825Z,1.30
2018-12-02T23:05:44.059Z,1.30
2018-12-02T23:08:13.112Z,1.30
2018-12-02T23:10:42.167Z,1.30
2018-12-02T23:13:11.719Z,1.30
2018-12-02T23:15:41.705Z,1.40
2018-12-02T23:18:12.104Z,1.40
2018-12-02T23:20:41.081Z,1.40
2018-12-02T23:23:09.967Z,1.50
2018-12-02T23:25:38.903Z,1.40
2018-12-02T23:28:08.240Z,1.40
2018-12-02T23:30:37.263Z,1.30
2018-12-02T23:33:07.093Z,1.30
2018-12-02T23:35:36.092Z,1.30
2018-12-02T23:38:05.511Z,1.40
2018-12-02T23:40:34.542Z,1.30
2018-12-02T23:43:03.415Z,1.40
2018-12-02T23:45:32.489Z,1.40
2018-12-02T23:48:01.379Z,1.50
2018-12-02T23:50:30.297Z,1.50
2018-12-02T23:52:59.216Z,1.60
2018-12-02T23:55:28.109Z,1.60
2018-12-02T23:57:56.998Z,1.60
